createdAt,value
2023-05-14T00:00:11.536Z,12.01
2023-05-14T00:02:40.720Z,12.00
2023-05-14T00:05:11.453Z,11.99
2023-05-14T00:07:39.933Z,11.95
2023-05-14T00:10:09.639Z,11.92
2023-05-14T00:12:38.140Z,11.90
2023-05-14T00:15:10.237Z,11.91
2023-05-14T00:17:39.030Z,11.88
2023-05-14T00:20:08.930Z,11.85
2023-05-14T00:22:38.224Z,11.81
2023-05-14T00:25:09.804Z,11.80
2023-05-14T00:27:38.717Z,11.77
2023-05-14T00:30:10.236Z,11.72
2023-05-14T00:32:38.675Z,11.71
2023-05-14T00:35:09.169Z,11.69
2023-05-14T00:37:39.101Z,11.65
2023-05-14T00:40:11.710Z,11.62
2023-05-14T00:42:41.208Z,11.60
2023-05-14T00:45:12.358Z,11.55
2023-05-14T00:47:41.422Z,11.52
2023-05-14T00:50:13.773Z,11.52
2023-05-14T00:52:43.411Z,11.48
2023-05-14T00:55:17.355Z,11.44
2023-05-14T00:57:46.172Z,11.43
2023-05-14T01:00:19.354Z,11.40
2023-05-14T01:02:48.523Z,11.34
2023-05-14T01:05:17.019Z,11.32
2023-05-14T01:07:59.856Z,11.32
2023-05-14T01:10:43.404Z,11.32
2023-05-14T01:13:21.112Z,11.29
2023-05-14T01:15:51.824Z,11.28
2023-05-14T01:18:20.900Z,11.28
2023-05-14T01:20:52.307Z,11.26
2023-05-14T01:23:22.274Z,11.25
2023-05-14T01:25:50.851Z,11.22
2023-05-14T01:28:26.745Z,11.21
2023-05-14T01:31:02.687Z,11.20
2023-05-14T01:33:34.737Z,11.19
2023-05-14T01:36:04.628Z,11.16
2023-05-14T01:38:36.387Z,11.10
2023-05-14T01:41:06.619Z,11.08
2023-05-14T01:43:36.125Z,11.03
2023-05-14T01:46:05.066Z,10.99
2023-05-14T01:48:33.542Z,10.92
2023-05-14T01:51:03.234Z,10.86
2023-05-14T01:53:35.492Z,10.85
2023-05-14T01:56:04.091Z,10.81
2023-05-14T01:58:32.554Z,10.81
2023-05-14T02:01:02.651Z,10.78
2023-05-14T02:03:32.562Z,10.76
2023-05-14T02:06:01.492Z,10.77
2023-05-14T02:08:29.894Z,10.78
2023-05-14T02:11:01.462Z,10.77
2023-05-14T02:13:30.784Z,10.74
2023-05-14T02:15:59.275Z,10.73
2023-05-14T02:18:27.706Z,10.73
2023-05-14T02:20:58.212Z,10.70
2023-05-14T02:23:37.723Z,10.65
2023-05-14T02:26:09.777Z,10.66
2023-05-14T02:28:38.363Z,10.64
2023-05-14T02:31:07.049Z,10.60
2023-05-14T02:33:37.157Z,10.57
2023-05-14T02:36:05.870Z,10.55
2023-05-14T02:38:34.855Z,10.53
2023-05-14T02:41:03.625Z,10.49
2023-05-14T02:43:33.789Z,10.48
2023-05-14T02:46:02.346Z,10.46
2023-05-14T02:48:31.344Z,10.44
2023-05-14T02:50:59.766Z,10.43
2023-05-14T02:53:28.780Z,10.40
2023-05-14T02:55:57.883Z,10.39
2023-05-14T02:58:28.412Z,10.41
2023-05-14T03:00:59.280Z,10.39
2023-05-14T03:03:30.007Z,10.34
2023-05-14T03:06:00.271Z,10.34
2023-05-14T03:08:29.298Z,10.33
2023-05-14T03:10:57.738Z,10.33
2023-05-14T03:13:27.417Z,10.23
2023-05-14T03:15:57.393Z,10.19
2023-05-14T03:18:28.377Z,10.18
2023-05-14T03:20:56.865Z,10.16
2023-05-14T03:23:26.383Z,10.13
2023-05-14T03:25:54.916Z,10.10
2023-05-14T03:28:23.795Z,10.05
2023-05-14T03:30:52.971Z,10.01
2023-05-14T03:33:23.660Z,10.01
2023-05-14T03:35:52.696Z,10.00
2023-05-14T03:38:21.132Z,9.99
2023-05-14T03:40:50.285Z,9.97
2023-05-14T03:43:18.761Z,9.94
2023-05-14T03:45:48.377Z,9.94
2023-05-14T03:48:16.854Z,9.94
2023-05-14T03:50:46.868Z,9.88
2023-05-14T03:53:16.102Z,9.91
2023-05-14T03:55:44.570Z,9.91
2023-05-14T03:58:14.757Z,9.90
2023-05-14T04:00:44.356Z,9.87
2023-05-14T04:03:13.322Z,9.85
2023-05-14T04:05:41.868Z,9.80
2023-05-14T04:08:12.270Z,9.79
2023-05-14T04:10:40.862Z,9.79
2023-05-14T04:13:09.356Z,9.79
2023-05-14T04:15:39.467Z,9.80
2023-05-14T04:18:08.144Z,9.78
2023-05-14T04:20:37.525Z,9.75
2023-05-14T04:23:06.135Z,9.73
2023-05-14T04:25:36.003Z,9.71
2023-05-14T04:28:04.663Z,9.71
2023-05-14T04:30:33.252Z,9.68
2023-05-14T04:33:02.359Z,9.65
2023-05-14T04:35:31.472Z,9.66
2023-05-14T04:37:59.928Z,9.64
2023-05-14T04:40:28.525Z,9.61
2023-05-14T04:42:58.544Z,9.61
2023-05-14T04:45:27.739Z,9.58
2023-05-14T04:47:56.424Z,9.58
2023-05-14T04:50:25.921Z,9.59
2023-05-14T04:52:56.573Z,9.61
2023-05-14T04:55:26.213Z,9.64
2023-05-14T04:57:55.519Z,9.67
2023-05-14T05:00:26.118Z,9.70
2023-05-14T05:02:54.886Z,9.71
2023-05-14T05:05:23.853Z,9.73
2023-05-14T05:07:52.380Z,9.75
2023-05-14T05:10:20.853Z,9.77
2023-05-14T05:12:49.377Z,9.79
2023-05-14T05:15:17.950Z,9.80
2023-05-14T05:17:48.250Z,9.82
2023-05-14T05:20:19.715Z,9.86
2023-05-14T05:22:48.214Z,9.88
2023-05-14T05:25:17.272Z,9.90
2023-05-14T05:27:46.034Z,9.92
2023-05-14T05:30:14.806Z,9.91
2023-05-14T05:32:43.460Z,9.93
2023-05-14T05:35:13.445Z,9.95
2023-05-14T05:37:45.275Z,9.97
2023-05-14T05:40:17.775Z,10.00
2023-05-14T05:42:47.026Z,10.05
2023-05-14T05:45:15.728Z,10.09
2023-05-14T05:47:45.095Z,10.13
2023-05-14T05:50:20.205Z,10.17
2023-05-14T05:52:49.330Z,10.22
2023-05-14T05:55:20.894Z,10.25
2023-05-14T05:57:49.368Z,10.30
2023-05-14T06:00:21.337Z,10.34
2023-05-14T06:02:53.730Z,10.37
2023-05-14T06:05:25.042Z,10.40
2023-05-14T06:07:54.907Z,10.44
2023-05-14T06:10:26.504Z,10.49
2023-05-14T06:12:55.396Z,10.55
2023-05-14T06:15:24.996Z,10.61
2023-05-14T06:17:53.888Z,10.67
2023-05-14T06:20:25.075Z,10.72
2023-05-14T06:22:56.632Z,10.78
2023-05-14T06:25:28.976Z,10.84
2023-05-14T06:27:57.547Z,10.91
2023-05-14T06:30:26.359Z,10.97
2023-05-14T06:32:55.590Z,11.02
2023-05-14T06:35:25.897Z,11.08
2023-05-14T06:37:54.337Z,11.14
2023-05-14T06:40:23.210Z,11.21
2023-05-14T06:42:51.923Z,11.28
2023-05-14T06:45:21.534Z,11.35
2023-05-14T06:47:51.980Z,11.41
2023-05-14T06:50:21.362Z,11.48
2023-05-14T06:52:53.893Z,11.53
2023-05-14T06:55:22.817Z,11.60
2023-05-14T06:57:52.443Z,11.66
2023-05-14T07:00:22.878Z,11.73
2023-05-14T07:02:51.595Z,11.77
2023-05-14T07:05:22.685Z,11.85
2023-05-14T07:07:52.755Z,11.90
2023-05-14T07:10:23.446Z,11.97
2023-05-14T07:12:52.400Z,12.03
2023-05-14T07:15:21.244Z,12.11
2023-05-14T07:17:49.799Z,12.21
2023-05-14T07:20:24.315Z,12.28
2023-05-14T07:22:55.102Z,12.36
2023-05-14T07:25:24.093Z,12.41
2023-05-14T07:27:52.809Z,12.50
2023-05-14T07:30:21.786Z,12.58
2023-05-14T07:32:50.994Z,12.68
2023-05-14T07:35:20.362Z,12.77
2023-05-14T07:37:50.095Z,12.87
2023-05-14T07:40:20.763Z,12.94
2023-05-14T07:42:49.216Z,13.03
2023-05-14T07:45:17.886Z,13.11
2023-05-14T07:47:46.530Z,13.18
2023-05-14T07:50:15.451Z,13.27
2023-05-14T07:52:43.882Z,13.35
2023-05-14T07:55:13.744Z,13.42
2023-05-14T07:57:43.592Z,13.49
2023-05-14T08:00:13.752Z,13.55
2023-05-14T08:02:42.690Z,13.61
2023-05-14T08:05:11.518Z,13.71
2023-05-14T08:07:39.997Z,13.75
2023-05-14T08:10:10.303Z,13.79
2023-05-14T08:12:39.651Z,13.86
2023-05-14T08:15:13.009Z,13.90
2023-05-14T08:17:41.547Z,13.94
2023-05-14T08:20:12.034Z,13.98
2023-05-14T08:22:41.175Z,14.04
2023-05-14T08:25:10.663Z,14.12
2023-05-14T08:27:39.085Z,14.20
2023-05-14T08:30:10.339Z,14.25
2023-05-14T08:32:39.570Z,14.28
2023-05-14T08:35:09.291Z,14.34
2023-05-14T08:37:38.114Z,14.41
2023-05-14T08:40:08.816Z,14.44
2023-05-14T08:42:40.572Z,14.47
2023-05-14T08:45:18.987Z,14.49
2023-05-14T08:47:51.056Z,14.52
2023-05-14T08:50:23.072Z,14.56
2023-05-14T08:52:54.188Z,14.60
2023-05-14T08:55:26.145Z,14.63
2023-05-14T08:57:55.196Z,14.73
2023-05-14T09:00:27.064Z,14.82
2023-05-14T09:02:57.254Z,14.88
2023-05-14T09:05:26.509Z,14.94
2023-05-14T09:07:55.046Z,14.99
2023-05-14T09:10:23.852Z,15.04
2023-05-14T09:12:52.576Z,15.10
2023-05-14T09:15:21.249Z,15.19
2023-05-14T09:17:51.224Z,15.25
2023-05-14T09:20:20.250Z,15.33
2023-05-14T09:22:49.381Z,15.39
2023-05-14T09:25:18.240Z,15.48
2023-05-14T09:27:51.656Z,15.57
2023-05-14T09:30:20.688Z,15.64
2023-05-14T09:32:50.705Z,15.71
2023-05-14T09:35:21.572Z,15.75
2023-05-14T09:37:53.450Z,15.83
2023-05-14T09:40:24.983Z,15.86
2023-05-14T09:42:53.749Z,15.88
2023-05-14T09:45:22.813Z,15.92
2023-05-14T09:47:53.432Z,15.93
2023-05-14T09:50:22.685Z,15.97
2023-05-14T09:52:51.356Z,15.94
2023-05-14T09:55:21.965Z,15.95
2023-05-14T09:57:50.407Z,16.03
2023-05-14T10:00:21.178Z,16.01
2023-05-14T10:02:53.309Z,16.05
2023-05-14T10:05:23.682Z,16.09
2023-05-14T10:07:54.431Z,16.15
2023-05-14T10:10:28.095Z,16.20
2023-05-14T10:13:04.241Z,16.27
2023-05-14T10:15:41.698Z,16.33
2023-05-14T10:18:14.520Z,16.39
2023-05-14T10:20:44.168Z,16.46
2023-05-14T10:23:12.871Z,16.52
2023-05-14T10:25:42.624Z,16.55
2023-05-14T10:28:11.772Z,16.53
2023-05-14T10:30:47.448Z,16.54
2023-05-14T10:33:18.824Z,16.57
2023-05-14T10:35:59.292Z,16.58
2023-05-14T10:38:29.998Z,16.57
2023-05-14T10:41:04.215Z,16.65
2023-05-14T10:43:38.649Z,16.71
2023-05-14T10:46:10.006Z,16.76
2023-05-14T10:48:43.515Z,16.81
2023-05-14T10:51:14.043Z,16.89
2023-05-14T10:53:44.951Z,16.95
2023-05-14T10:56:15.405Z,16.98
2023-05-14T10:58:46.697Z,17.01
2023-05-14T11:01:15.836Z,17.06
2023-05-14T11:03:47.846Z,17.13
2023-05-14T11:06:17.541Z,17.14
2023-05-14T11:08:47.014Z,17.13
2023-05-14T11:11:15.614Z,17.19
2023-05-14T11:13:45.886Z,17.23
2023-05-14T11:16:23.295Z,17.26
2023-05-14T11:19:04.026Z,17.27
2023-05-14T11:21:33.469Z,17.27
2023-05-14T11:24:02.344Z,17.28
2023-05-14T11:26:34.009Z,17.26
2023-05-14T11:29:02.604Z,17.34
2023-05-14T11:31:31.685Z,17.41
2023-05-14T11:34:03.914Z,17.45
2023-05-14T11:36:32.938Z,17.39
2023-05-14T11:39:01.452Z,17.40
2023-05-14T11:41:31.091Z,17.41
2023-05-14T11:44:01.085Z,17.43
2023-05-14T11:46:31.519Z,17.46
2023-05-14T11:49:01.426Z,17.48
2023-05-14T11:51:30.329Z,17.56
2023-05-14T11:53:59.337Z,17.56
2023-05-14T11:56:27.825Z,17.61
2023-05-14T11:58:58.963Z,17.68
2023-05-14T12:01:28.754Z,17.75
2023-05-14T12:03:57.416Z,17.82
2023-05-14T12:06:33.209Z,17.79
2023-05-14T12:09:01.935Z,17.79
2023-05-14T12:11:32.975Z,17.79
2023-05-14T12:14:01.546Z,17.78
2023-05-14T12:16:33.997Z,17.77
2023-05-14T12:19:05.106Z,17.77
2023-05-14T12:21:36.689Z,17.81
2023-05-14T12:24:05.623Z,17.82
2023-05-14T12:26:35.219Z,17.92
2023-05-14T12:29:07.480Z,17.98
2023-05-14T12:31:38.223Z,18.04
2023-05-14T12:34:07.859Z,18.03
2023-05-14T12:36:38.317Z,18.03
2023-05-14T12:39:07.103Z,18.03
2023-05-14T12:41:35.640Z,18.04
2023-05-14T12:44:06.277Z,18.10
2023-05-14T12:46:35.895Z,18.15
2023-05-14T12:49:04.454Z,18.21
2023-05-14T12:51:32.835Z,18.22
2023-05-14T12:54:03.326Z,18.20
2023-05-14T12:56:32.102Z,18.21
2023-05-14T12:59:00.639Z,18.23
2023-05-14T13:01:29.758Z,18.29
2023-05-14T13:03:58.909Z,18.34
2023-05-14T13:06:28.097Z,18.40
2023-05-14T13:08:56.803Z,18.52
2023-05-14T13:11:27.289Z,18.60
2023-05-14T13:13:56.400Z,18.73
2023-05-14T13:16:24.890Z,18.91
2023-05-14T13:18:53.332Z,19.01
2023-05-14T13:21:22.136Z,19.22
2023-05-14T13:23:50.884Z,19.23
2023-05-14T13:26:19.772Z,19.20
2023-05-14T13:28:49.603Z,19.23
2023-05-14T13:31:18.073Z,19.06
2023-05-14T13:33:46.710Z,19.01
2023-05-14T13:36:16.991Z,19.00
2023-05-14T13:38:47.037Z,18.98
2023-05-14T13:41:15.533Z,18.87
2023-05-14T13:43:44.167Z,18.86
2023-05-14T13:46:14.599Z,18.87
2023-05-14T13:48:42.963Z,18.99
2023-05-14T13:51:11.411Z,19.06
2023-05-14T13:53:39.848Z,19.17
2023-05-14T13:56:09.016Z,19.29
2023-05-14T13:58:37.542Z,19.40
2023-05-14T14:01:06.390Z,19.52
2023-05-14T14:03:36.315Z,19.62
2023-05-14T14:06:05.674Z,19.79
2023-05-14T14:08:34.095Z,19.83
2023-05-14T14:11:02.601Z,19.85
2023-05-14T14:13:31.134Z,19.86
2023-05-14T14:15:59.569Z,19.76
2023-05-14T14:18:28.478Z,19.66
2023-05-14T14:20:58.516Z,19.64
2023-05-14T14:23:29.284Z,19.57
2023-05-14T14:25:57.860Z,19.50
2023-05-14T14:28:26.902Z,19.55
2023-05-14T14:30:55.338Z,19.66
2023-05-14T14:33:23.843Z,19.72
2023-05-14T14:35:52.991Z,19.75
2023-05-14T14:38:22.826Z,19.77
2023-05-14T14:40:51.455Z,19.78
2023-05-14T14:43:19.895Z,19.65
2023-05-14T14:45:49.173Z,19.41
2023-05-14T14:48:27.490Z,19.27
2023-05-14T14:50:56.696Z,19.15
2023-05-14T14:53:26.569Z,19.07
2023-05-14T14:55:55.158Z,19.06
2023-05-14T14:58:24.568Z,18.98
2023-05-14T15:00:55.585Z,18.85
2023-05-14T15:03:25.529Z,18.84
2023-05-14T15:05:55.000Z,18.86
2023-05-14T15:08:27.707Z,18.94
2023-05-14T15:10:56.621Z,19.03
2023-05-14T15:13:25.803Z,19.14
2023-05-14T15:15:54.333Z,19.26
2023-05-14T15:18:22.974Z,19.41
2023-05-14T15:20:52.179Z,19.51
2023-05-14T15:23:20.874Z,19.63
2023-05-14T15:25:50.673Z,19.73
2023-05-14T15:28:19.888Z,19.80
2023-05-14T15:30:49.700Z,19.79
2023-05-14T15:33:19.334Z,19.82
2023-05-14T15:35:48.170Z,19.87
2023-05-14T15:38:16.580Z,19.94
2023-05-14T15:40:45.040Z,19.98
2023-05-14T15:43:14.978Z,19.92
2023-05-14T15:45:45.743Z,19.81
2023-05-14T15:48:14.662Z,19.77
2023-05-14T15:50:43.558Z,19.79
2023-05-14T15:53:12.855Z,19.81
2023-05-14T15:55:41.834Z,19.74
2023-05-14T15:58:10.289Z,19.74
2023-05-14T16:00:40.080Z,19.75
2023-05-14T16:03:08.656Z,19.74
2023-05-14T16:05:37.411Z,19.76
2023-05-14T16:08:06.319Z,19.73
2023-05-14T16:10:34.825Z,19.77
2023-05-14T16:13:03.256Z,19.80
2023-05-14T16:15:31.775Z,19.81
2023-05-14T16:18:01.769Z,19.73
2023-05-14T16:20:30.429Z,19.72
2023-05-14T16:22:58.850Z,19.81
2023-05-14T16:25:27.571Z,19.81
2023-05-14T16:27:56.214Z,19.74
2023-05-14T16:30:24.779Z,19.66
2023-05-14T16:32:54.336Z,19.55
2023-05-14T16:35:24.233Z,19.48
2023-05-14T16:37:53.269Z,19.50
2023-05-14T16:40:23.431Z,19.48
2023-05-14T16:42:52.246Z,19.44
2023-05-14T16:45:20.823Z,19.35
2023-05-14T16:47:49.303Z,19.32
2023-05-14T16:50:18.083Z,19.34
2023-05-14T16:52:47.917Z,19.32
2023-05-14T16:55:16.714Z,19.30
2023-05-14T16:57:45.307Z,19.23
2023-05-14T17:00:15.396Z,19.25
2023-05-14T17:02:43.891Z,19.15
2023-05-14T17:05:12.366Z,19.06
2023-05-14T17:07:41.406Z,19.04
2023-05-14T17:10:12.196Z,18.96
2023-05-14T17:12:40.648Z,18.88
2023-05-14T17:15:11.236Z,18.87
2023-05-14T17:17:39.668Z,18.91
2023-05-14T17:20:09.502Z,18.89
2023-05-14T17:22:38.703Z,18.91
2023-05-14T17:25:09.134Z,18.94
2023-05-14T17:27:38.958Z,18.89
2023-05-14T17:30:10.202Z,18.88
2023-05-14T17:32:38.847Z,18.84
2023-05-14T17:35:09.643Z,18.85
2023-05-14T17:37:38.292Z,18.77
2023-05-14T17:40:08.228Z,18.75
2023-05-14T17:42:38.091Z,18.73
2023-05-14T17:45:08.273Z,18.70
2023-05-14T17:47:37.288Z,18.69
2023-05-14T17:50:07.237Z,18.64
2023-05-14T17:52:35.683Z,18.56
2023-05-14T17:55:04.274Z,18.51
2023-05-14T17:57:32.705Z,18.48
2023-05-14T18:00:02.515Z,18.45
2023-05-14T18:02:31.746Z,18.43
2023-05-14T18:05:00.436Z,18.41
2023-05-14T18:07:29.319Z,18.40
2023-05-14T18:09:58.126Z,18.39
2023-05-14T18:12:27.461Z,18.36
2023-05-14T18:14:56.601Z,18.28
2023-05-14T18:17:26.532Z,18.29
2023-05-14T18:19:55.078Z,18.28
2023-05-14T18:22:24.390Z,18.28
2023-05-14T18:24:52.870Z,18.30
2023-05-14T18:27:21.873Z,18.28
2023-05-14T18:29:51.745Z,18.27
2023-05-14T18:32:21.137Z,18.24
2023-05-14T18:34:51.036Z,18.23
2023-05-14T18:37:19.555Z,18.21
2023-05-14T18:39:47.995Z,18.16
2023-05-14T18:42:16.701Z,18.10
2023-05-14T18:44:45.152Z,18.11
2023-05-14T18:47:14.370Z,18.03
2023-05-14T18:49:42.802Z,17.98
2023-05-14T18:52:12.633Z,17.93
2023-05-14T18:54:41.034Z,17.92
2023-05-14T18:57:09.755Z,17.88
2023-05-14T18:59:38.168Z,17.85
2023-05-14T19:02:07.017Z,17.83
2023-05-14T19:04:47.898Z,17.75
2023-05-14T19:07:21.738Z,17.69
2023-05-14T19:09:50.418Z,17.60
2023-05-14T19:12:19.457Z,17.56
2023-05-14T19:14:47.849Z,17.53
2023-05-14T19:17:18.370Z,17.47
2023-05-14T19:19:47.707Z,17.44
2023-05-14T19:22:16.198Z,17.43
2023-05-14T19:24:46.371Z,17.37
2023-05-14T19:27:16.305Z,17.33
2023-05-14T19:29:46.664Z,17.26
2023-05-14T19:32:15.146Z,17.22
2023-05-14T19:34:43.590Z,17.17
2023-05-14T19:37:12.797Z,17.14
2023-05-14T19:39:41.208Z,17.10
2023-05-14T19:42:11.032Z,17.08
2023-05-14T19:44:39.555Z,17.04
2023-05-14T19:47:09.145Z,17.01
2023-05-14T19:49:37.779Z,16.98
2023-05-14T19:52:07.326Z,16.96
2023-05-14T19:54:35.754Z,16.94
2023-05-14T19:57:04.230Z,16.90
2023-05-14T19:59:34.732Z,16.89
2023-05-14T20:02:04.750Z,16.87
2023-05-14T20:04:33.718Z,16.85
2023-05-14T20:07:02.238Z,16.82
2023-05-14T20:09:31.132Z,16.79
2023-05-14T20:11:59.610Z,16.75
2023-05-14T20:14:28.101Z,16.70
2023-05-14T20:17:00.052Z,16.69
2023-05-14T20:19:28.654Z,16.67
2023-05-14T20:21:59.794Z,16.61
2023-05-14T20:24:29.602Z,16.58
2023-05-14T20:26:58.088Z,16.52
2023-05-14T20:29:26.483Z,16.49
2023-05-14T20:31:54.979Z,16.43
2023-05-14T20:34:24.916Z,16.41
2023-05-14T20:36:53.356Z,16.39
2023-05-14T20:39:22.825Z,16.39
2023-05-14T20:41:51.628Z,16.38
2023-05-14T20:44:20.752Z,16.36
2023-05-14T20:46:49.285Z,16.29
2023-05-14T20:49:17.827Z,16.27
2023-05-14T20:51:47.671Z,16.24
2023-05-14T20:54:16.118Z,16.21
2023-05-14T20:56:44.685Z,16.19
2023-05-14T20:59:13.696Z,16.16
2023-05-14T21:01:43.691Z,16.15
2023-05-14T21:04:12.381Z,16.07
2023-05-14T21:06:40.880Z,16.02
2023-05-14T21:09:10.921Z,16.02
2023-05-14T21:11:39.384Z,15.95
2023-05-14T21:14:07.801Z,15.91
2023-05-14T21:16:36.796Z,15.85
2023-05-14T21:19:05.305Z,15.81
2023-05-14T21:21:33.813Z,15.76
2023-05-14T21:24:02.293Z,15.72
2023-05-14T21:26:34.066Z,15.69
2023-05-14T21:29:03.689Z,15.67
2023-05-14T21:31:32.179Z,15.66
2023-05-14T21:34:00.679Z,15.60
2023-05-14T21:36:29.074Z,15.61
2023-05-14T21:38:58.108Z,15.60
2023-05-14T21:41:26.625Z,15.60
2023-05-14T21:43:56.992Z,15.62
2023-05-14T21:46:25.798Z,15.59
2023-05-14T21:48:54.366Z,15.56
2023-05-14T21:51:22.980Z,15.56
2023-05-14T21:53:51.400Z,15.53
2023-05-14T21:56:20.067Z,15.51
2023-05-14T21:58:48.511Z,15.46
2023-05-14T22:01:18.447Z,15.41
2023-05-14T22:03:46.889Z,15.40
2023-05-14T22:06:15.466Z,15.42
2023-05-14T22:08:44.939Z,15.41
2023-05-14T22:11:13.479Z,15.39
2023-05-14T22:13:41.872Z,15.39
2023-05-14T22:16:13.248Z,15.37
2023-05-14T22:18:44.728Z,15.35
2023-05-14T22:21:13.186Z,15.35
2023-05-14T22:23:41.632Z,15.34
2023-05-14T22:26:10.584Z,15.33
2023-05-14T22:28:42.946Z,15.31
2023-05-14T22:31:12.129Z,15.27
2023-05-14T22:33:41.400Z,15.21
2023-05-14T22:36:11.909Z,15.15
2023-05-14T22:38:41.843Z,15.09
2023-05-14T22:41:10.453Z,15.02
2023-05-14T22:43:38.974Z,14.97
2023-05-14T22:46:07.498Z,14.86
2023-05-14T22:48:35.963Z,14.79
2023-05-14T22:51:04.437Z,14.73
2023-05-14T22:53:34.380Z,14.68
2023-05-14T22:56:02.953Z,14.65
2023-05-14T22:58:32.514Z,14.60
2023-05-14T23:01:01.117Z,14.52
2023-05-14T23:03:29.833Z,14.47
2023-05-14T23:05:58.916Z,14.40
2023-05-14T23:08:27.388Z,14.36
2023-05-14T23:10:57.253Z,14.32
2023-05-14T23:13:26.180Z,14.28
2023-05-14T23:15:54.653Z,14.24
2023-05-14T23:18:25.002Z,14.20
2023-05-14T23:20:54.367Z,14.18
2023-05-14T23:23:23.459Z,14.16
2023-05-14T23:25:52.944Z,14.11
2023-05-14T23:28:23.602Z,14.09
2023-05-14T23:30:53.050Z,14.04
2023-05-14T23:33:21.609Z,14.03
2023-05-14T23:35:51.850Z,13.98
2023-05-14T23:38:21.101Z,13.92
2023-05-14T23:40:49.589Z,13.87
2023-05-14T23:43:18.073Z,13.83
2023-05-14T23:45:48.543Z,13.81
2023-05-14T23:48:17.668Z,13.80
2023-05-14T23:50:46.069Z,13.77
2023-05-14T23:53:14.480Z,13.74
2023-05-14T23:55:43.476Z,13.69
2023-05-14T23:58:11.908Z,13.67
